KABE/ABE METAR and TAF weather

Enter ICAO airport designator
Station Type Date Time Source
KABE METAR 2020/09/19 16:51 UTC NOAA

KABE 191651Z VRB05KT 10SM CLR 15/00 A3036 RMK AO2 SLP282 T01500000


Station Type Date Time Source
KABE Decoded METAR 2020/09/19 16:51 UTC NOAA

LEHIGH VALLEY INTERNATIONAL AIRPORT, PA, United States (KABE) 40-39N 075-27W 114M
Sep 19, 2020 - 12:51 PM EDT / 2020.09.19 1651 UTC
Wind: Variable at 6 MPH (5 KT):0
Visibility: 10 mile(s):0
Sky conditions: clear
Temperature: 59.0 F (15.0 C)
Dew Point: 32.0 F (0.0 C)
Relative Humidity: 35%
Pressure (altimeter): 30.36 in. Hg (1028 hPa)
ob: KABE 191651Z VRB05KT 10SM CLR 15/00 A3036 RMK AO2 SLP282 T01500000
cycle: 17

Station Type Date Time Source
KABE TAF 2020/09/19 18:28 UTC NOAA

TAF KABE 191725Z 1918/2018 04010KT P6SM SKC
FM192100 02006KT P6SM SKC
FM200000 VRB02KT P6SM SKC

Example: see airport list